createdAt,value
2022-08-03T00:01:25.490Z,19.00
2022-08-03T00:03:52.335Z,19.00
2022-08-03T00:06:19.305Z,19.00
2022-08-03T00:08:46.201Z,18.90
2022-08-03T00:11:13.127Z,18.90
2022-08-03T00:13:40.017Z,18.90
2022-08-03T00:16:07.014Z,18.90
2022-08-03T00:18:33.917Z,18.80
2022-08-03T00:21:00.823Z,18.90
2022-08-03T00:23:50.822Z,18.80
2022-08-03T00:26:14.606Z,18.80
2022-08-03T00:28:42.016Z,18.80
2022-08-03T00:31:08.934Z,18.70
2022-08-03T00:33:58.281Z,18.70
2022-08-03T00:36:27.155Z,18.70
2022-08-03T00:38:54.189Z,18.70
2022-08-03T00:41:21.075Z,18.70
2022-08-03T00:43:47.998Z,18.60
2022-08-03T00:46:19.190Z,18.70
2022-08-03T00:48:48.271Z,18.60
2022-08-03T00:51:15.206Z,18.60
2022-08-03T00:53:42.071Z,18.60
2022-08-03T00:56:08.948Z,18.60
2022-08-03T00:58:35.883Z,18.60
2022-08-03T01:01:04.589Z,18.50
2022-08-03T01:03:31.538Z,18.50
2022-08-03T01:06:42.151Z,18.50
2022-08-03T01:09:20.557Z,18.50
2022-08-03T01:12:00.310Z,18.50
2022-08-03T01:14:58.241Z,18.50
2022-08-03T01:17:48.808Z,18.50
2022-08-03T01:20:15.691Z,18.40
2022-08-03T01:22:57.620Z,18.40
2022-08-03T01:25:54.539Z,18.40
2022-08-03T01:28:38.802Z,18.40
2022-08-03T01:31:08.298Z,18.40
2022-08-03T01:33:43.604Z,18.40
2022-08-03T01:36:14.048Z,18.40
2022-08-03T01:38:47.675Z,18.40
2022-08-03T01:41:17.829Z,18.30
2022-08-03T01:43:55.177Z,18.30
2022-08-03T01:46:32.369Z,18.30
2022-08-03T01:48:59.299Z,18.30
2022-08-03T01:51:57.722Z,18.30
2022-08-03T01:54:13.228Z,18.30
2022-08-03T01:56:40.661Z,18.30
2022-08-03T01:59:07.649Z,18.20
2022-08-03T02:02:16.065Z,18.20
2022-08-03T02:04:23.159Z,18.30
2022-08-03T02:07:02.003Z,18.30
2022-08-03T02:09:29.967Z,18.40
2022-08-03T02:11:56.842Z,18.50
2022-08-03T02:14:23.872Z,18.60
2022-08-03T02:16:50.810Z,18.70
2022-08-03T02:19:17.884Z,18.80
2022-08-03T02:21:56.637Z,18.80
2022-08-03T02:24:29.018Z,18.90
2022-08-03T02:26:56.591Z,19.00
2022-08-03T02:29:39.476Z,19.00
2022-08-03T02:32:10.843Z,19.00
2022-08-03T02:34:37.736Z,19.10
2022-08-03T02:37:04.636Z,19.10
2022-08-03T02:39:31.864Z,19.10
2022-08-03T02:42:02.321Z,19.10
2022-08-03T02:44:32.540Z,19.20
2022-08-03T02:47:02.569Z,19.20
2022-08-03T02:49:40.711Z,19.20
2022-08-03T02:52:16.492Z,19.20
2022-08-03T02:54:44.602Z,19.30
2022-08-03T02:57:11.514Z,19.30
2022-08-03T02:59:38.478Z,19.30
2022-08-03T03:02:05.524Z,19.30
2022-08-03T03:04:33.213Z,19.30
2022-08-03T03:07:01.787Z,19.30
2022-08-03T03:09:40.379Z,19.40
2022-08-03T03:12:11.366Z,19.40
2022-08-03T03:14:38.347Z,19.40
2022-08-03T03:17:06.627Z,19.40
2022-08-03T03:19:33.990Z,19.40
2022-08-03T03:22:01.610Z,19.40
2022-08-03T03:24:29.576Z,19.40
2022-08-03T03:26:57.114Z,19.40
2022-08-03T03:29:24.097Z,19.50
2022-08-03T03:31:51.104Z,19.50
2022-08-03T03:34:18.716Z,19.50
2022-08-03T03:36:45.930Z,19.50
2022-08-03T03:39:14.311Z,19.50
2022-08-03T03:41:43.377Z,19.50
2022-08-03T03:44:10.236Z,19.50
2022-08-03T03:46:38.191Z,19.50
2022-08-03T03:49:07.352Z,19.50
2022-08-03T03:51:34.418Z,19.50
2022-08-03T03:54:02.421Z,19.50
2022-08-03T03:56:29.346Z,19.50
2022-08-03T03:58:56.555Z,19.50
2022-08-03T04:01:23.565Z,19.50
2022-08-03T04:03:50.478Z,19.50
2022-08-03T04:06:35.817Z,19.50
2022-08-03T04:09:21.564Z,19.60
2022-08-03T04:11:55.142Z,19.60
2022-08-03T04:14:27.034Z,19.60
2022-08-03T04:16:59.110Z,19.60
2022-08-03T04:19:40.771Z,19.60
2022-08-03T04:22:11.342Z,19.60
2022-08-03T04:25:09.331Z,19.60
2022-08-03T04:27:38.224Z,19.60
2022-08-03T04:30:06.142Z,19.70
2022-08-03T04:32:33.116Z,19.70
2022-08-03T04:34:59.958Z,19.70
2022-08-03T04:37:40.596Z,19.70
2022-08-03T04:40:11.449Z,19.70
2022-08-03T04:42:38.535Z,19.70
2022-08-03T04:45:05.904Z,19.70
2022-08-03T04:47:33.239Z,19.80
2022-08-03T04:50:03.481Z,19.80
2022-08-03T04:52:30.769Z,19.70
2022-08-03T04:54:57.818Z,19.80
2022-08-03T04:57:24.760Z,19.80
2022-08-03T05:00:01.372Z,19.80
2022-08-03T05:02:29.352Z,19.80
2022-08-03T05:04:56.264Z,19.80
2022-08-03T05:07:25.147Z,19.90
2022-08-03T05:09:57.636Z,19.80
2022-08-03T05:12:32.696Z,19.80
2022-08-03T05:15:00.454Z,19.80
2022-08-03T05:17:28.338Z,19.80
2022-08-03T05:19:55.428Z,19.80
2022-08-03T05:22:22.540Z,19.80
2022-08-03T05:24:49.408Z,19.80
2022-08-03T05:27:22.005Z,19.90
2022-08-03T05:29:49.725Z,19.90
2022-08-03T05:32:17.138Z,19.90
2022-08-03T05:34:44.185Z,19.90
2022-08-03T05:37:11.111Z,19.90
2022-08-03T05:39:38.254Z,19.90
2022-08-03T05:42:05.128Z,20.00
2022-08-03T05:44:32.171Z,20.00
2022-08-03T05:46:59.434Z,20.00
2022-08-03T05:49:26.484Z,20.10
2022-08-03T05:52:00.379Z,20.10
2022-08-03T05:54:55.920Z,20.10
2022-08-03T05:57:24.242Z,20.20
2022-08-03T05:59:54.781Z,20.30
2022-08-03T06:02:28.552Z,20.30
2022-08-03T06:04:55.527Z,20.30
2022-08-03T06:07:22.561Z,20.40
2022-08-03T06:10:34.943Z,20.50
2022-08-03T06:12:36.450Z,20.40
2022-08-03T06:15:04.382Z,20.50
2022-08-03T06:17:37.194Z,20.60
2022-08-03T06:20:06.187Z,20.60
2022-08-03T06:22:33.268Z,20.70
2022-08-03T06:25:04.154Z,20.70
2022-08-03T06:27:37.067Z,20.70
2022-08-03T06:30:05.387Z,20.80
2022-08-03T06:32:32.376Z,20.80
2022-08-03T06:34:59.745Z,20.80
2022-08-03T06:37:27.181Z,20.90
2022-08-03T06:39:54.260Z,20.90
2022-08-03T06:42:21.214Z,21.00
2022-08-03T06:44:49.835Z,21.00
2022-08-03T06:47:17.191Z,21.00
2022-08-03T06:49:44.224Z,21.00
2022-08-03T06:52:38.047Z,21.00
2022-08-03T06:55:06.941Z,21.10
2022-08-03T06:57:33.855Z,21.10
2022-08-03T07:00:08.852Z,21.10
2022-08-03T07:02:39.683Z,21.10
2022-08-03T07:05:07.463Z,21.20
2022-08-03T07:07:34.368Z,21.20
2022-08-03T07:10:02.421Z,21.30
2022-08-03T07:12:29.827Z,21.30
2022-08-03T07:15:00.695Z,21.40
2022-08-03T07:17:30.072Z,21.40
2022-08-03T07:19:57.183Z,21.50
2022-08-03T07:22:24.172Z,21.50
2022-08-03T07:24:51.075Z,21.60
2022-08-03T07:27:17.983Z,21.60
2022-08-03T07:29:44.934Z,21.60
2022-08-03T07:32:11.853Z,21.80
2022-08-03T07:34:38.693Z,21.90
2022-08-03T07:37:05.800Z,22.00
2022-08-03T07:39:32.701Z,22.10
2022-08-03T07:41:59.609Z,22.10
2022-08-03T07:44:26.474Z,22.10
2022-08-03T07:46:53.464Z,22.10
2022-08-03T07:49:20.378Z,22.10
2022-08-03T07:52:07.291Z,22.00
2022-08-03T07:54:34.236Z,22.00
2022-08-03T07:57:01.069Z,22.00
2022-08-03T07:59:28.180Z,22.00
2022-08-03T08:02:15.528Z,22.00
2022-08-03T08:04:42.654Z,22.00
2022-08-03T08:07:09.718Z,22.00
2022-08-03T08:09:36.957Z,22.00
2022-08-03T08:12:04.493Z,22.00
2022-08-03T08:14:42.513Z,22.00
2022-08-03T08:17:09.381Z,22.00
2022-08-03T08:19:36.818Z,22.10
2022-08-03T08:22:08.429Z,22.20
2022-08-03T08:24:38.396Z,22.30
2022-08-03T08:27:06.479Z,22.40
2022-08-03T08:29:33.549Z,22.60
2022-08-03T08:32:01.745Z,22.80
2022-08-03T08:34:28.636Z,22.90
2022-08-03T08:36:59.538Z,23.00
2022-08-03T08:39:26.405Z,23.10
2022-08-03T08:41:53.471Z,23.10
2022-08-03T08:44:20.436Z,23.10
2022-08-03T08:46:47.586Z,23.20
2022-08-03T08:49:14.633Z,23.30
2022-08-03T08:51:54.518Z,23.40
2022-08-03T08:54:27.896Z,23.50
2022-08-03T08:56:54.939Z,23.60
2022-08-03T08:59:21.905Z,23.70
2022-08-03T09:01:48.768Z,23.70
2022-08-03T09:04:15.666Z,23.70
2022-08-03T09:06:53.728Z,23.70
2022-08-03T09:10:12.079Z,23.80
2022-08-03T09:12:40.605Z,23.80
2022-08-03T09:15:26.235Z,23.90
2022-08-03T09:17:54.773Z,23.90
2022-08-03T09:20:22.534Z,24.10
2022-08-03T09:22:56.536Z,24.20
2022-08-03T09:25:30.813Z,24.30
2022-08-03T09:28:56.433Z,24.40
2022-08-03T09:31:03.823Z,24.50
2022-08-03T09:33:35.982Z,24.50
2022-08-03T09:36:03.295Z,24.50
2022-08-03T09:38:30.186Z,24.50
2022-08-03T09:41:00.335Z,24.50
2022-08-03T09:43:28.111Z,24.60
2022-08-03T09:46:03.401Z,24.70
2022-08-03T09:48:31.045Z,24.80
2022-08-03T09:51:13.014Z,24.80
2022-08-03T09:53:58.743Z,24.90
2022-08-03T09:56:41.773Z,25.00
2022-08-03T09:59:09.505Z,25.10
2022-08-03T10:01:37.243Z,25.20
2022-08-03T10:04:05.253Z,25.30
2022-08-03T10:06:32.501Z,25.10
2022-08-03T10:09:12.957Z,25.00
2022-08-03T10:11:42.035Z,25.00
2022-08-03T10:14:19.178Z,25.00
2022-08-03T10:16:46.863Z,24.90
2022-08-03T10:19:15.134Z,24.90
2022-08-03T10:21:50.803Z,24.80
2022-08-03T10:24:19.248Z,24.80
2022-08-03T10:26:50.019Z,25.00
2022-08-03T10:29:25.117Z,25.40
2022-08-03T10:31:58.219Z,25.70
2022-08-03T10:34:32.984Z,25.80
2022-08-03T10:36:59.870Z,26.00
2022-08-03T10:39:28.987Z,26.00
2022-08-03T10:41:57.713Z,26.10
2022-08-03T10:44:25.074Z,26.20
2022-08-03T10:46:51.964Z,26.40
2022-08-03T10:49:33.727Z,26.70
2022-08-03T10:52:02.868Z,26.90
2022-08-03T10:55:07.867Z,27.10
2022-08-03T10:57:52.674Z,27.30
2022-08-03T11:00:27.029Z,27.50
2022-08-03T11:03:11.105Z,27.60
2022-08-03T11:05:49.120Z,28.00
2022-08-03T11:08:34.743Z,28.40
2022-08-03T11:11:23.864Z,28.70
2022-08-03T11:14:07.976Z,28.60
2022-08-03T11:16:36.815Z,28.50
2022-08-03T11:19:05.236Z,29.10
2022-08-03T11:21:50.495Z,30.10
2022-08-03T11:24:43.645Z,31.00
2022-08-03T11:27:23.897Z,31.50
2022-08-03T11:30:10.479Z,31.70
2022-08-03T11:32:40.549Z,32.20
2022-08-03T11:35:31.766Z,32.10
2022-08-03T11:38:01.536Z,31.50
2022-08-03T11:40:55.055Z,31.10
2022-08-03T11:43:31.904Z,30.50
2022-08-03T11:46:02.673Z,30.10
2022-08-03T11:48:35.323Z,29.80
2022-08-03T11:51:06.556Z,29.40
2022-08-03T11:53:33.749Z,29.10
2022-08-03T11:56:12.925Z,28.70
2022-08-03T11:59:17.559Z,28.50
2022-08-03T12:01:34.562Z,28.50
2022-08-03T12:04:04.966Z,29.10
2022-08-03T12:06:51.826Z,29.80
2022-08-03T12:09:21.291Z,30.00
2022-08-03T12:11:57.764Z,30.40
2022-08-03T12:14:48.862Z,30.80
2022-08-03T12:17:15.161Z,32.10
2022-08-03T12:19:42.944Z,32.30
2022-08-03T12:22:09.898Z,32.10
2022-08-03T12:24:43.895Z,32.10
2022-08-03T12:27:10.820Z,32.80
2022-08-03T12:29:37.652Z,33.50
2022-08-03T12:32:04.804Z,33.80
2022-08-03T12:34:48.366Z,33.70
2022-08-03T12:37:22.349Z,33.30
2022-08-03T12:40:01.416Z,32.90
2022-08-03T12:42:35.105Z,32.50
2022-08-03T12:45:28.439Z,31.90
2022-08-03T12:47:56.840Z,31.80
2022-08-03T12:50:34.495Z,31.90
2022-08-03T12:53:07.936Z,31.90
2022-08-03T12:55:57.900Z,31.70
2022-08-03T12:58:35.418Z,31.70
2022-08-03T13:01:09.538Z,32.40
2022-08-03T13:03:45.808Z,33.20
2022-08-03T13:06:21.389Z,34.30
2022-08-03T13:08:48.463Z,34.80
2022-08-03T13:11:53.613Z,35.00
2022-08-03T13:14:19.681Z,35.30
2022-08-03T13:16:50.628Z,35.50
2022-08-03T13:19:17.634Z,35.60
2022-08-03T13:22:03.275Z,35.10
2022-08-03T13:24:32.698Z,34.50
2022-08-03T13:27:00.368Z,35.40
2022-08-03T13:29:27.296Z,36.20
2022-08-03T13:31:54.240Z,36.00
2022-08-03T13:34:23.913Z,36.00
2022-08-03T13:37:19.722Z,36.40
2022-08-03T13:39:57.724Z,36.80
2022-08-03T13:42:26.118Z,37.80
2022-08-03T13:44:52.996Z,37.60
2022-08-03T13:47:20.675Z,37.60
2022-08-03T13:49:56.933Z,38.40
2022-08-03T13:52:28.247Z,39.20
2022-08-03T13:54:55.291Z,38.20
2022-08-03T13:58:04.432Z,37.00
2022-08-03T14:00:09.752Z,36.60
2022-08-03T14:02:37.507Z,36.10
2022-08-03T14:05:04.741Z,35.50
2022-08-03T14:07:31.862Z,34.70
2022-08-03T14:09:58.842Z,34.70
2022-08-03T14:12:25.715Z,34.80
2022-08-03T14:14:52.632Z,35.00
2022-08-03T14:17:20.063Z,36.20
2022-08-03T14:19:53.691Z,37.70
2022-08-03T14:22:21.468Z,39.10
2022-08-03T14:24:49.168Z,40.10
2022-08-03T14:27:16.727Z,41.10
2022-08-03T14:29:43.685Z,41.80
2022-08-03T14:32:13.104Z,42.40
2022-08-03T14:34:40.526Z,43.10
2022-08-03T14:37:07.593Z,43.70
2022-08-03T14:42:21.981Z,44.00
2022-08-03T14:44:48.978Z,43.80
2022-08-03T14:47:15.963Z,43.70
2022-08-03T14:50:36.647Z,43.90
2022-08-03T14:52:30.426Z,44.10
2022-08-03T14:54:57.641Z,43.50
2022-08-03T14:57:24.720Z,42.00
2022-08-03T14:59:56.063Z,41.00
2022-08-03T15:02:24.999Z,39.90
2022-08-03T15:04:52.580Z,39.60
2022-08-03T15:07:20.863Z,39.40
2022-08-03T15:09:48.054Z,39.60
2022-08-03T15:12:14.923Z,40.50
2022-08-03T15:14:41.783Z,40.90
2022-08-03T15:17:08.735Z,41.10
2022-08-03T15:20:02.895Z,41.40
2022-08-03T15:22:25.247Z,41.70
2022-08-03T15:25:03.374Z,40.90
2022-08-03T15:27:30.829Z,40.00
2022-08-03T15:30:05.796Z,39.30
2022-08-03T15:32:36.695Z,38.40
2022-08-03T15:35:03.916Z,37.40
2022-08-03T15:37:30.805Z,37.00
2022-08-03T15:39:59.142Z,36.50
2022-08-03T15:42:28.039Z,35.40
2022-08-03T15:44:55.202Z,34.90
2022-08-03T15:47:22.527Z,34.80
2022-08-03T15:49:49.520Z,34.40
2022-08-03T15:52:16.467Z,34.00
2022-08-03T15:54:43.461Z,34.90
2022-08-03T15:57:10.392Z,36.70
2022-08-03T15:59:37.339Z,38.50
2022-08-03T16:02:04.442Z,39.70
2022-08-03T16:04:31.398Z,40.10
2022-08-03T16:06:58.290Z,39.50
2022-08-03T16:09:43.132Z,38.60
2022-08-03T16:12:15.626Z,38.60
2022-08-03T16:14:52.492Z,38.30
2022-08-03T16:17:21.389Z,37.20
2022-08-03T16:19:48.709Z,35.80
2022-08-03T16:22:17.499Z,34.70
2022-08-03T16:24:46.970Z,34.20
2022-08-03T16:27:17.296Z,34.20
2022-08-03T16:30:00.796Z,33.70
2022-08-03T16:32:27.688Z,33.20
2022-08-03T16:34:54.607Z,33.10
2022-08-03T16:37:38.339Z,33.00
2022-08-03T16:40:08.854Z,33.00
2022-08-03T16:42:44.655Z,33.00
2022-08-03T16:45:11.671Z,32.80
2022-08-03T16:47:38.591Z,32.60
2022-08-03T16:50:15.501Z,32.10
2022-08-03T16:52:47.044Z,31.70
2022-08-03T16:55:18.338Z,31.40
2022-08-03T16:58:03.350Z,31.60
2022-08-03T17:00:33.939Z,31.70
2022-08-03T17:03:04.140Z,31.40
2022-08-03T17:05:32.620Z,30.90
2022-08-03T17:08:14.696Z,30.50
2022-08-03T17:10:45.354Z,30.10
2022-08-03T17:13:22.011Z,29.70
2022-08-03T17:15:58.131Z,29.40
2022-08-03T17:18:29.718Z,29.20
2022-08-03T17:20:57.129Z,29.30
2022-08-03T17:23:34.563Z,29.40
2022-08-03T17:26:04.174Z,29.40
2022-08-03T17:28:48.090Z,29.70
2022-08-03T17:31:31.119Z,30.50
2022-08-03T17:34:00.692Z,31.50
2022-08-03T17:36:47.493Z,31.60
2022-08-03T17:39:30.773Z,31.60
2022-08-03T17:42:05.346Z,31.60
2022-08-03T17:44:52.713Z,31.20
2022-08-03T17:47:19.866Z,30.80
2022-08-03T17:49:48.379Z,30.70
2022-08-03T17:52:27.621Z,30.50
2022-08-03T17:55:55.542Z,30.20
2022-08-03T17:58:03.294Z,29.60
2022-08-03T18:00:51.753Z,29.10
2022-08-03T18:03:21.999Z,28.80
2022-08-03T18:06:12.003Z,28.50
2022-08-03T18:08:46.708Z,28.30
2022-08-03T18:11:21.491Z,28.10
2022-08-03T18:14:38.467Z,28.00
2022-08-03T18:17:06.310Z,27.90
2022-08-03T18:20:02.472Z,27.70
2022-08-03T18:22:27.804Z,27.50
2022-08-03T18:24:57.504Z,27.30
2022-08-03T18:27:24.528Z,27.10
2022-08-03T18:30:11.939Z,26.90
2022-08-03T18:32:38.873Z,26.70
2022-08-03T18:35:06.705Z,26.60
2022-08-03T18:37:52.411Z,26.40
2022-08-03T18:40:20.660Z,26.30
2022-08-03T18:45:57.305Z,26.00
2022-08-03T18:48:35.866Z,25.90
2022-08-03T18:51:09.692Z,25.70
2022-08-03T18:54:03.687Z,25.60
2022-08-03T18:56:33.267Z,25.50
2022-08-03T18:59:12.719Z,25.40
2022-08-03T19:01:59.830Z,25.40
2022-08-03T19:04:32.509Z,25.40
2022-08-03T19:07:11.176Z,25.40
2022-08-03T19:09:47.992Z,25.40
2022-08-03T19:15:12.612Z,25.30
2022-08-03T19:17:42.707Z,25.30
2022-08-03T19:20:35.504Z,25.30
2022-08-03T19:23:02.491Z,25.20
2022-08-03T19:25:34.813Z,25.10
2022-08-03T19:28:06.300Z,25.00
2022-08-03T19:30:55.204Z,24.90
2022-08-03T19:33:22.819Z,24.80
2022-08-03T19:35:55.640Z,24.70
2022-08-03T19:38:28.502Z,24.70
2022-08-03T19:40:58.344Z,24.60
2022-08-03T19:43:33.238Z,24.50
2022-08-03T19:46:16.644Z,24.50
2022-08-03T19:48:44.780Z,24.50
2022-08-03T19:51:12.175Z,24.40
2022-08-03T19:53:43.161Z,24.40
2022-08-03T19:56:12.911Z,24.30
2022-08-03T19:58:40.411Z,24.20
2022-08-03T20:01:19.617Z,24.10
2022-08-03T20:03:48.996Z,24.00
2022-08-03T20:06:25.394Z,23.80
2022-08-03T20:08:52.431Z,23.80
2022-08-03T20:11:20.024Z,23.80
2022-08-03T20:13:49.042Z,23.70
2022-08-03T20:16:16.053Z,23.60
2022-08-03T20:18:42.980Z,23.60
2022-08-03T20:21:14.747Z,23.50
2022-08-03T20:24:01.972Z,23.50
2022-08-03T20:26:33.540Z,23.40
2022-08-03T20:29:09.249Z,23.40
2022-08-03T20:31:37.610Z,23.30
2022-08-03T20:34:05.427Z,23.30
2022-08-03T20:36:32.301Z,23.30
2022-08-03T20:38:59.393Z,23.20
2022-08-03T20:41:26.701Z,23.20
2022-08-03T20:43:53.657Z,23.30
2022-08-03T20:46:31.032Z,23.30
2022-08-03T20:48:59.960Z,23.30
2022-08-03T20:51:49.179Z,23.20
2022-08-03T20:54:28.554Z,23.20
2022-08-03T20:56:59.934Z,23.20
2022-08-03T20:59:36.922Z,23.20
2022-08-03T21:02:19.679Z,23.10
2022-08-03T21:04:56.253Z,23.20
2022-08-03T21:07:23.149Z,23.20
2022-08-03T21:09:52.558Z,23.10
2022-08-03T21:12:27.058Z,23.10
2022-08-03T21:12:58.871Z,26.10
2022-08-03T21:13:11.242Z,25.40
2022-08-03T21:15:03.400Z,23.10
2022-08-03T21:17:40.470Z,23.00
2022-08-03T21:20:09.585Z,23.00
2022-08-03T21:22:37.922Z,22.90
2022-08-03T21:25:07.276Z,22.90
2022-08-03T21:27:34.129Z,22.80
2022-08-03T21:30:02.878Z,22.70
2022-08-03T21:32:33.207Z,22.70
2022-08-03T21:35:00.471Z,22.70
2022-08-03T21:37:27.621Z,22.60
2022-08-03T21:39:54.908Z,22.60
2022-08-03T21:42:23.985Z,22.50
2022-08-03T21:44:53.991Z,22.50
2022-08-03T21:47:21.943Z,22.40
2022-08-03T21:49:51.782Z,22.40
2022-08-03T21:52:33.485Z,22.30
2022-08-03T21:55:02.952Z,22.30
2022-08-03T21:57:29.844Z,22.20
2022-08-03T22:00:05.513Z,22.20
2022-08-03T22:02:42.778Z,22.10
2022-08-03T22:05:09.946Z,22.10
2022-08-03T22:07:43.512Z,22.00
2022-08-03T22:10:10.871Z,22.00
2022-08-03T22:12:37.780Z,22.00
2022-08-03T22:15:06.873Z,22.00
2022-08-03T22:17:55.240Z,22.00
2022-08-03T22:20:21.809Z,21.90
2022-08-03T22:22:55.479Z,21.90
2022-08-03T22:25:27.259Z,21.90
2022-08-03T22:27:54.446Z,21.90
2022-08-03T22:30:21.305Z,21.80
2022-08-03T22:32:50.154Z,21.80
2022-08-03T22:35:17.026Z,21.80
2022-08-03T22:37:43.945Z,21.70
2022-08-03T22:40:12.918Z,21.70
2022-08-03T22:42:40.701Z,21.70
2022-08-03T22:45:07.950Z,21.60
2022-08-03T22:47:36.375Z,21.60
2022-08-03T22:50:32.755Z,21.60
2022-08-03T22:52:57.737Z,21.50
2022-08-03T22:55:25.198Z,21.50
2022-08-03T22:57:56.087Z,21.50
2022-08-03T23:00:23.582Z,21.50
2022-08-03T23:02:50.531Z,21.50
2022-08-03T23:06:01.115Z,21.50
2022-08-03T23:08:15.648Z,21.40
2022-08-03T23:10:46.743Z,21.50
2022-08-03T23:13:16.330Z,21.50
2022-08-03T23:15:43.173Z,21.60
2022-08-03T23:18:10.070Z,21.60
2022-08-03T23:20:37.823Z,21.60
2022-08-03T23:23:05.101Z,21.60
2022-08-03T23:25:31.952Z,21.60
2022-08-03T23:28:05.173Z,21.50
2022-08-03T23:30:34.522Z,21.40
2022-08-03T23:33:01.398Z,21.30
2022-08-03T23:36:27.629Z,21.20
2022-08-03T23:38:37.198Z,21.10
2022-08-03T23:41:04.723Z,21.00
2022-08-03T23:43:45.009Z,20.90
2022-08-03T23:46:19.827Z,20.90
2022-08-03T23:48:46.710Z,20.80
2022-08-03T23:51:19.021Z,20.70
2022-08-03T23:53:56.639Z,20.70
2022-08-03T23:56:37.615Z,20.60
2022-08-03T23:59:32.188Z,20.60
